createdAt,value
2022-10-06T00:07:53.223Z,1.7
2022-10-06T00:19:53.348Z,1.8
2022-10-06T00:31:53.280Z,1.8
2022-10-06T00:43:53.334Z,1.8
2022-10-06T00:55:53.388Z,1.6
2022-10-06T01:07:53.389Z,1.6
2022-10-06T01:19:53.284Z,1.2
2022-10-06T01:31:53.200Z,1.2
2022-10-06T01:43:53.262Z,1.2
2022-10-06T01:55:53.168Z,1.4
2022-10-06T02:07:53.161Z,1.4
2022-10-06T02:19:53.276Z,1.2
2022-10-06T02:31:53.166Z,1.2
2022-10-06T02:43:53.241Z,1.2
2022-10-06T02:55:53.159Z,1.1
2022-10-06T03:07:53.158Z,1.1
2022-10-06T03:19:53.273Z,1.0
2022-10-06T03:31:53.169Z,1.0
2022-10-06T03:43:53.274Z,1.0
2022-10-06T03:55:53.251Z,1.2
2022-10-06T04:07:53.195Z,1.2
2022-10-06T04:19:53.164Z,0.9
2022-10-06T04:31:53.223Z,0.9
2022-10-06T04:43:53.247Z,0.9
2022-10-06T04:55:53.162Z,0.9
2022-10-06T05:07:53.160Z,0.9
2022-10-06T05:19:53.161Z,0.8
2022-10-06T05:31:53.210Z,0.8
2022-10-06T05:43:53.230Z,0.8
2022-10-06T05:55:53.512Z,0.9
2022-10-06T06:07:53.437Z,0.9
2022-10-06T06:19:53.159Z,0.8
2022-10-06T06:31:53.233Z,0.8
2022-10-06T06:43:53.364Z,0.8
2022-10-06T06:55:53.168Z,1.2
2022-10-06T07:07:53.163Z,1.2
2022-10-06T07:19:53.166Z,1.1
2022-10-06T07:31:53.285Z,1.1
2022-10-06T07:43:53.270Z,1.1
2022-10-06T07:55:53.158Z,1.2
2022-10-06T08:07:53.376Z,1.2
2022-10-06T08:19:53.158Z,1.1
2022-10-06T08:31:53.276Z,1.1
2022-10-06T08:43:53.240Z,1.1
2022-10-06T08:55:53.233Z,1.0
2022-10-06T09:07:53.276Z,1.0
2022-10-06T09:19:53.524Z,1.0
2022-10-06T09:31:53.285Z,1.0
2022-10-06T09:43:53.166Z,1.0
2022-10-06T09:55:53.277Z,0.9
2022-10-06T10:07:53.161Z,0.9
2022-10-06T10:19:53.240Z,0.8
2022-10-06T10:31:53.243Z,0.8
2022-10-06T10:43:53.278Z,0.8
2022-10-06T10:55:53.240Z,0.7
2022-10-06T11:07:53.296Z,0.7
2022-10-06T11:19:53.226Z,0.7
2022-10-06T11:31:53.307Z,0.7
2022-10-06T11:43:53.267Z,0.7
2022-10-06T11:55:53.159Z,0.6
2022-10-06T12:07:53.268Z,0.6
2022-10-06T12:19:53.241Z,0.6
2022-10-06T12:31:53.280Z,0.6
2022-10-06T12:43:53.148Z,0.6
2022-10-06T12:55:53.268Z,0.7
2022-10-06T13:07:53.278Z,0.7
2022-10-06T13:19:53.200Z,0.6
2022-10-06T13:31:53.467Z,0.6
2022-10-06T13:43:53.273Z,0.6
2022-10-06T13:55:53.282Z,0.6
2022-10-06T14:07:53.154Z,0.6
2022-10-06T14:19:53.238Z,0.7
2022-10-06T14:31:53.237Z,0.7
2022-10-06T14:43:53.180Z,0.7
2022-10-06T14:55:53.250Z,0.5
2022-10-06T15:07:53.157Z,0.5
2022-10-06T15:19:53.159Z,0.7
2022-10-06T15:31:53.224Z,0.7
2022-10-06T15:43:53.170Z,0.7
2022-10-06T15:55:53.161Z,0.8
2022-10-06T16:07:53.249Z,0.8
2022-10-06T16:19:53.173Z,0.7
2022-10-06T16:31:53.211Z,0.7
2022-10-06T16:43:53.159Z,0.7
2022-10-06T16:55:55.191Z,0.9
2022-10-06T17:07:58.336Z,0.9
2022-10-06T17:19:53.164Z,0.7
2022-10-06T17:31:53.418Z,0.7
2022-10-06T17:43:53.161Z,0.7
2022-10-06T17:55:53.158Z,1.4
2022-10-06T18:07:53.163Z,1.4
2022-10-06T18:19:53.158Z,1.1
2022-10-06T18:31:53.222Z,1.1
2022-10-06T18:43:53.159Z,1.1
2022-10-06T18:55:53.159Z,0.7
2022-10-06T19:07:53.168Z,0.7
2022-10-06T19:19:53.262Z,0.8
2022-10-06T19:31:53.157Z,0.8
2022-10-06T19:43:53.163Z,0.8
2022-10-06T19:55:53.156Z,1.0
2022-10-06T20:07:53.159Z,1.0
2022-10-06T20:19:57.422Z,0.7
2022-10-06T20:31:53.169Z,0.7
2022-10-06T20:43:53.235Z,0.7
2022-10-06T20:55:53.165Z,0.8
2022-10-06T21:07:53.248Z,0.8
2022-10-06T21:19:53.243Z,0.8
2022-10-06T21:31:53.241Z,0.8
2022-10-06T21:43:53.243Z,0.8
2022-10-06T21:55:53.244Z,0.9
2022-10-06T22:07:53.239Z,0.9
2022-10-06T22:19:53.237Z,0.9
2022-10-06T22:31:53.457Z,0.9
2022-10-06T22:43:53.386Z,0.9
2022-10-06T22:55:53.243Z,0.7
2022-10-06T23:07:53.241Z,0.7
2022-10-06T23:19:53.243Z,0.8
2022-10-06T23:31:53.279Z,0.8
2022-10-06T23:43:53.243Z,0.8
2022-10-06T23:55:53.247Z,0.7
